Time;durP1;ratioP1;P1;durP2;ratioP2;P2;SDS_P1;SDS_P2;PMS_P1;PMS_P2;Temp;Humidity;BMP_temperature;BMP_pressure;BME280_temperature;BME280_humidity;BME280_pressure;Samples;Min_cycle;Max_cycle;Signal;HPM_P1;HPM_P2
2023/03/08 00:00:09;;;;;;;3.47;0.63;;;;;;;10.57;54.65;100818.56;5046285;28;20049;-77
2023/03/08 00:02:37;;;;;;;1.00;0.38;;;;;;;10.54;55.00;100802.09;5048305;28;20145;-77
2023/03/08 00:05:08;;;;;;;0.77;0.40;;;;;;;10.53;58.37;100803.78;5048242;28;20694;-79
2023/03/08 00:07:37;;;;;;;1.25;0.60;;;;;;;10.51;59.17;100802.84;5046255;28;20590;-78
2023/03/08 00:10:06;;;;;;;1.05;0.63;;;;;;;10.36;60.57;100800.69;5050653;28;20049;-78
2023/03/08 00:12:34;;;;;;;1.67;0.95;;;;;;;10.22;57.65;100800.22;5054297;28;20082;-79
2023/03/08 00:15:03;;;;;;;1.65;0.82;;;;;;;10.13;58.10;100789.59;5044659;28;20126;-78
2023/03/08 00:17:31;;;;;;;1.17;0.60;;;;;;;10.07;59.12;100786.81;5049013;28;20153;-78
2023/03/08 00:20:00;;;;;;;1.65;0.63;;;;;;;10.06;59.02;100777.31;5045923;28;20514;-75
2023/03/08 00:22:30;;;;;;;1.55;0.93;;;;;;;10.07;57.52;100782.50;5048634;28;20053;-78
2023/03/08 00:24:59;;;;;;;2.13;0.70;;;;;;;10.05;56.31;100783.28;5048463;28;20037;-76
2023/03/08 00:27:27;;;;;;;1.58;0.70;;;;;;;10.04;56.68;100771.19;5042493;28;20052;-75
2023/03/08 00:29:56;;;;;;;1.52;0.57;;;;;;;10.09;58.07;100773.94;5048662;28;20053;-78
2023/03/08 00:32:26;;;;;;;0.85;0.50;;;;;;;10.12;56.19;100779.19;5042868;28;20060;-82
2023/03/08 00:34:55;;;;;;;0.95;0.38;;;;;;;10.11;55.83;100777.44;5046935;28;20123;-75
2023/03/08 00:37:23;;;;;;;0.40;0.35;;;;;;;10.09;53.76;100772.22;5049135;28;20049;-77
2023/03/08 00:39:54;;;;;;;0.40;0.20;;;;;;;10.08;54.66;100773.06;5046582;28;20048;-77
2023/03/08 00:42:23;;;;;;;0.43;0.20;;;;;;;10.10;57.23;100774.00;5045322;28;20052;-78
2023/03/08 00:44:52;;;;;;;0.73;0.45;;;;;;;10.11;57.61;100770.56;5046222;28;20053;-78
2023/03/08 00:47:21;;;;;;;0.95;0.55;;;;;;;10.09;53.03;100759.28;5049410;28;20056;-80
2023/03/08 00:49:49;;;;;;;0.82;0.20;;;;;;;9.99;56.20;100765.00;5044735;28;20522;-73
2023/03/08 00:52:18;;;;;;;0.40;0.30;;;;;;;9.99;53.73;100755.53;5049335;28;20061;-75
2023/03/08 00:54:46;;;;;;;0.50;0.30;;;;;;;9.92;51.50;100758.78;5043133;28;20086;-75
2023/03/08 00:57:17;;;;;;;0.40;0.38;;;;;;;9.89;53.93;100762.94;5051560;28;20048;-77
2023/03/08 00:59:45;;;;;;;0.30;0.25;;;;;;;9.88;54.34;100763.78;5045599;28;20133;-77
2023/03/08 01:02:14;;;;;;;1.20;0.60;;;;;;;9.86;52.08;100767.19;5056805;28;20065;-77
2023/03/08 01:04:42;;;;;;;1.55;0.50;;;;;;;9.79;51.79;100770.41;5052481;28;20102;-77
2023/03/08 01:07:11;;;;;;;1.02;0.40;;;;;;;9.73;54.76;100766.72;5048623;28;20166;-76
2023/03/08 01:09:39;;;;;;;1.15;0.68;;;;;;;9.65;56.11;100769.94;5048747;28;20090;-77
2023/03/08 01:12:08;;;;;;;0.88;0.70;;;;;;;9.58;57.84;100775.75;5045938;28;20056;-75
2023/03/08 01:14:39;;;;;;;0.80;0.57;;;;;;;9.53;60.12;100769.53;5050577;28;20045;-76
2023/03/08 01:17:07;;;;;;;1.45;0.70;;;;;;;9.41;58.55;100770.00;5048716;28;20056;-73
2023/03/08 01:19:36;;;;;;;0.98;0.77;;;;;;;9.26;58.63;100766.88;5052286;28;20060;-77
2023/03/08 01:22:04;;;;;;;3.08;1.08;;;;;;;9.10;60.45;100769.75;5049316;28;20494;-77
2023/03/08 01:24:33;;;;;;;1.10;0.77;;;;;;;8.98;61.94;100773.66;5049803;28;20132;-77
2023/03/08 01:27:01;;;;;;;2.00;0.90;;;;;;;8.90;62.20;100771.63;5052507;28;20669;-79
2023/03/08 01:29:30;;;;;;;1.45;0.98;;;;;;;8.88;62.67;100773.25;5040559;28;20564;-77
2023/03/08 01:32:00;;;;;;;2.38;0.98;;;;;;;8.85;63.09;100768.88;5041108;28;20100;-78
2023/03/08 01:34:29;;;;;;;1.38;0.88;;;;;;;8.88;63.73;100774.13;5046971;28;20056;-76
2023/03/08 01:36:57;;;;;;;1.45;1.05;;;;;;;8.91;64.95;100774.25;5046328;28;20060;-76
2023/03/08 01:39:26;;;;;;;1.75;1.13;;;;;;;8.94;64.67;100776.94;5044600;28;20059;-75
2023/03/08 01:41:54;;;;;;;1.00;0.80;;;;;;;8.97;64.72;100784.78;5047026;28;20052;-72
2023/03/08 01:44:23;;;;;;;2.45;0.90;;;;;;;9.00;65.53;100799.50;5047780;28;20454;-71
2023/03/08 01:46:52;;;;;;;3.22;0.90;;;;;;;9.00;65.65;100820.16;5053718;28;20052;-75
2023/03/08 01:49:25;;;;;;;0.50;0.50;;;;;;;8.92;65.33;100830.19;5050113;28;20053;-74
2023/03/08 01:51:57;;;;;;;1.38;0.40;;;;;;;8.52;65.45;100833.84;5048635;28;20048;-75
2023/03/08 01:54:30;;;;;;;0.25;0.20;;;;;;;8.14;67.67;100843.47;5043187;28;20566;-73
2023/03/08 01:57:03;;;;;;;0.52;0.20;;;;;;;8.00;69.05;100833.44;5045806;28;20440;-74
2023/03/08 01:59:35;;;;;;;0.30;0.20;;;;;;;7.87;70.21;100830.31;5051952;28;20053;-73
2023/03/08 02:02:04;;;;;;;0.37;0.23;;;;;;;7.85;70.92;100846.53;5052224;28;20506;-74
2023/03/08 02:04:34;;;;;;;0.08;0.08;;;;;;;7.74;71.86;100853.81;5046624;28;20054;-73
2023/03/08 02:07:02;;;;;;;0.20;0.10;;;;;;;7.63;72.36;100853.38;5050171;28;20045;-74
2023/03/08 02:09:31;;;;;;;0.38;0.10;;;;;;;7.52;72.41;100850.31;5044357;28;20053;-75
2023/03/08 02:12:04;;;;;;;0.57;0.40;;;;;;;7.42;73.92;100857.56;5050541;28;20118;-75
2023/03/08 02:14:33;;;;;;;0.30;0.20;;;;;;;7.34;75.61;100859.81;5047282;28;20134;-77
2023/03/08 02:17:02;;;;;;;1.27;0.40;;;;;;;7.25;76.44;100873.16;5046853;28;20056;-76
2023/03/08 02:19:43;;;;;;;0.10;0.10;;;;;;;7.06;78.86;100883.44;5054576;28;20061;-77
2023/03/08 02:22:13;;;;;;;0.10;0.10;;;;;;;6.79;82.59;100883.91;5047365;28;20614;-82
2023/03/08 02:24:44;;;;;;;0.57;0.28;;;;;;;6.62;84.71;100893.44;5046863;28;20060;-86
2023/03/08 02:27:15;;;;;;;0.10;0.00;;;;;;;6.44;87.62;100908.84;5058760;27;20053;-82
2023/03/08 02:29:44;;;;;;;0.45;0.13;;;;;;;6.29;88.01;100900.38;5047316;28;20087;-81
2023/03/08 02:32:12;;;;;;;0.38;0.20;;;;;;;6.25;89.60;100903.59;5056975;28;20052;-79
2023/03/08 02:34:41;;;;;;;0.40;0.20;;;;;;;6.21;89.69;100911.97;5054195;28;20052;-77
2023/03/08 02:37:09;;;;;;;0.10;0.03;;;;;;;6.14;92.33;100920.16;5045584;28;20038;-80
2023/03/08 02:39:38;;;;;;;0.50;0.30;;;;;;;6.03;91.42;100922.22;5052770;28;20498;-80
2023/03/08 02:42:08;;;;;;;1.55;0.30;;;;;;;5.96;93.75;100907.31;5046694;28;20040;-81
2023/03/08 02:44:37;;;;;;;0.20;0.10;;;;;;;6.04;94.20;100919.72;5050106;28;20053;-74
2023/03/08 02:47:06;;;;;;;0.40;0.17;;;;;;;6.05;95.45;100931.75;5046284;28;20052;-77
2023/03/08 02:49:34;;;;;;;0.10;0.10;;;;;;;6.01;93.85;100929.84;5050255;28;20043;-75
2023/03/08 02:52:03;;;;;;;0.47;0.20;;;;;;;5.93;94.53;100928.53;5052182;28;20063;-75
2023/03/08 02:54:31;;;;;;;0.32;0.30;;;;;;;5.85;97.14;100932.41;5051310;28;20079;-75
2023/03/08 02:57:00;;;;;;;1.23;0.32;;;;;;;5.81;98.33;100931.34;5051945;28;20490;-75
2023/03/08 02:59:31;;;;;;;0.20;0.20;;;;;;;5.83;98.32;100940.00;5056501;28;20098;-76
2023/03/08 03:01:59;;;;;;;0.13;0.10;;;;;;;5.84;98.14;100935.75;5051637;28;20123;-76
2023/03/08 03:04:31;;;;;;;0.85;0.65;;;;;;;5.84;96.47;100938.31;5052317;28;20705;-75
2023/03/08 03:07:01;;;;;;;0.75;0.38;;;;;;;5.86;97.98;100937.63;5049564;28;20124;-75
2023/03/08 03:09:29;;;;;;;0.50;0.30;;;;;;;5.88;98.89;100936.00;5049210;28;20052;-75
2023/03/08 03:11:58;;;;;;;0.35;0.17;;;;;;;5.91;98.34;100931.81;5036537;28;20041;-75
2023/03/08 03:14:30;;;;;;;0.57;0.40;;;;;;;5.89;97.59;100926.63;5050314;28;20523;-75
2023/03/08 03:16:59;;;;;;;0.35;0.10;;;;;;;5.87;98.05;100920.53;5041408;28;20040;-74
2023/03/08 03:19:28;;;;;;;0.32;0.10;;;;;;;5.84;97.46;100912.66;5052899;28;20060;-75
2023/03/08 03:22:03;;;;;;;0.30;0.20;;;;;;;5.82;97.46;100911.72;5047657;28;20056;-75
2023/03/08 03:24:31;;;;;;;0.32;0.17;;;;;;;5.81;98.52;100907.38;5046281;28;20053;-76
2023/03/08 03:27:00;;;;;;;1.48;0.47;;;;;;;5.81;97.77;100900.53;5049933;27;20119;-76
2023/03/08 03:29:30;;;;;;;0.30;0.30;;;;;;;5.75;96.88;100910.50;5053164;28;21286;-75
2023/03/08 03:31:59;;;;;;;0.55;0.30;;;;;;;5.69;97.54;100909.31;5051912;28;20052;-76
2023/03/08 03:34:28;;;;;;;0.70;0.40;;;;;;;5.62;98.27;100906.41;5047252;28;20107;-76
2023/03/08 03:36:57;;;;;;;1.23;0.30;;;;;;;5.57;98.72;100907.88;5048445;28;20128;-78
2023/03/08 03:39:25;;;;;;;8.85;0.65;;;;;;;5.54;99.15;100910.25;5052351;28;20056;-76
2023/03/08 03:41:54;;;;;;;0.77;0.47;;;;;;;5.48;98.70;100902.25;5051104;28;20602;-76
2023/03/08 03:44:22;;;;;;;0.50;0.40;;;;;;;5.44;99.67;100913.16;5047015;28;20049;-76
2023/03/08 03:46:53;;;;;;;0.40;0.30;;;;;;;5.36;100.00;100920.47;5043854;28;20072;-75
2023/03/08 03:49:21;;;;;;;0.55;0.30;;;;;;;5.30;100.00;100922.69;5048559;28;20391;-75
2023/03/08 03:51:50;;;;;;;0.10;0.05;;;;;;;5.32;100.00;100920.22;5048134;28;20072;-75
2023/03/08 03:54:18;;;;;;;1.88;0.17;;;;;;;5.36;100.00;100919.56;5046944;28;20041;-76
2023/03/08 03:56:47;;;;;;;0.10;0.10;;;;;;;5.39;100.00;100919.75;5047341;28;20497;-74
2023/03/08 03:59:16;;;;;;;0.30;0.20;;;;;;;5.39;100.00;100925.75;5053775;28;20048;-76
2023/03/08 04:01:44;;;;;;;0.30;0.20;;;;;;;5.36;99.99;100927.25;5047232;28;20494;-75
2023/03/08 04:04:14;;;;;;;0.45;0.30;;;;;;;5.35;100.00;100933.19;5051245;28;20049;-74
2023/03/08 04:06:43;;;;;;;0.43;0.20;;;;;;;5.36;100.00;100934.94;5048537;28;20406;-75
2023/03/08 04:09:15;;;;;;;0.57;0.43;;;;;;;5.37;100.00;100931.59;5052812;28;20213;-75
2023/03/08 04:11:44;;;;;;;0.40;0.40;;;;;;;5.39;100.00;100927.44;5050619;28;20095;-74
2023/03/08 04:14:13;;;;;;;0.13;0.13;;;;;;;5.35;100.00;100925.50;5044472;28;20048;-77
2023/03/08 04:16:42;;;;;;;2.75;0.25;;;;;;;5.39;100.00;100935.13;5039379;28;20582;-75
2023/03/08 04:19:20;;;;;;;1.00;0.50;;;;;;;5.38;100.00;100939.41;5043653;28;20449;-77
2023/03/08 04:21:50;;;;;;;0.88;0.50;;;;;;;5.39;100.00;100940.28;5045595;28;20555;-76
2023/03/08 04:24:18;;;;;;;0.52;0.40;;;;;;;5.40;100.00;100942.91;5048502;28;20064;-77
2023/03/08 04:26:53;;;;;;;0.93;0.35;;;;;;;5.40;100.00;100944.59;5052354;27;20605;-77
2023/03/08 04:29:31;;;;;;;0.70;0.40;;;;;;;5.38;100.00;100939.41;5043450;28;20070;-77
2023/03/08 04:31:59;;;;;;;0.30;0.25;;;;;;;5.35;100.00;100935.78;5050495;28;20051;-77
2023/03/08 04:34:30;;;;;;;0.20;0.08;;;;;;;5.33;100.00;100938.25;5045799;28;20520;-77
2023/03/08 04:36:58;;;;;;;1.50;0.50;;;;;;;5.30;100.00;100932.09;5041746;28;20282;-77
2023/03/08 04:39:27;;;;;;;1.02;0.22;;;;;;;5.26;100.00;100933.59;5045833;28;20057;-76
2023/03/08 04:41:56;;;;;;;0.25;0.17;;;;;;;5.27;100.00;100934.47;5046576;28;20037;-78
2023/03/08 04:44:24;;;;;;;0.60;0.40;;;;;;;5.25;100.00;100929.28;5056897;28;20053;-77
2023/03/08 04:46:52;;;;;;;0.40;0.20;;;;;;;5.24;100.00;100930.97;5050713;28;20053;-76
2023/03/08 04:49:21;;;;;;;0.52;0.40;;;;;;;5.23;100.00;100926.63;5042925;28;20479;-77
2023/03/08 04:51:52;;;;;;;0.40;0.20;;;;;;;5.31;100.00;100931.28;5038843;28;20156;-75
2023/03/08 04:54:20;;;;;;;1.58;0.30;;;;;;;5.33;100.00;100919.41;5045359;28;20662;-76
2023/03/08 04:56:49;;;;;;;0.38;0.15;;;;;;;5.35;100.00;100922.94;5036411;28;20092;-76
2023/03/08 04:59:17;;;;;;;0.35;0.30;;;;;;;5.36;100.00;100917.00;5046904;28;20772;-76
2023/03/08 05:01:46;;;;;;;0.20;0.20;;;;;;;5.38;100.00;100917.97;5050713;28;20064;-77
2023/03/08 05:04:14;;;;;;;0.85;0.35;;;;;;;5.39;100.00;100919.75;5052038;28;20059;-74
2023/03/08 05:06:43;;;;;;;0.63;0.40;;;;;;;5.38;100.00;100923.09;5049702;28;20041;-73
2023/03/08 05:09:13;;;;;;;0.45;0.30;;;;;;;5.36;100.00;100909.28;5048604;28;20037;-72
2023/03/08 05:11:41;;;;;;;0.20;0.20;;;;;;;5.36;100.00;100917.00;5044925;28;20053;-73
2023/03/08 05:14:11;;;;;;;1.42;0.52;;;;;;;5.33;100.00;100924.53;5047864;28;20049;-75
2023/03/08 05:16:39;;;;;;;0.77;0.38;;;;;;;5.25;100.00;100922.44;5041888;28;20045;-74
2023/03/08 05:19:08;;;;;;;1.15;0.40;;;;;;;5.22;100.00;100917.16;5045889;28;20053;-75
2023/03/08 05:21:36;;;;;;;0.40;0.30;;;;;;;5.19;100.00;100924.69;5048773;28;20049;-76
2023/03/08 05:24:05;;;;;;;0.20;0.17;;;;;;;5.19;100.00;100916.97;5043299;28;20053;-77
2023/03/08 05:26:35;;;;;;;0.40;0.30;;;;;;;5.21;100.00;100920.50;5054763;28;20170;-75
2023/03/08 05:29:05;;;;;;;0.13;0.13;;;;;;;5.23;100.00;100918.91;5044567;28;20053;-76
2023/03/08 05:31:35;;;;;;;0.32;0.25;;;;;;;5.25;100.00;100911.31;5041936;28;20089;-75
2023/03/08 05:34:03;;;;;;;0.32;0.28;;;;;;;5.24;100.00;100913.00;5039292;28;20075;-74
2023/03/08 05:36:32;;;;;;;0.25;0.25;;;;;;;5.24;100.00;100913.00;5047357;28;20067;-75
2023/03/08 05:39:01;;;;;;;0.22;0.22;;;;;;;5.23;100.00;100912.91;5051085;28;20045;-76
2023/03/08 05:41:29;;;;;;;0.65;0.50;;;;;;;5.23;100.00;100916.34;5039025;28;20040;-75
2023/03/08 05:44:01;;;;;;;0.35;0.25;;;;;;;5.22;100.00;100912.03;5050209;28;20055;-74
2023/03/08 05:46:30;;;;;;;0.65;0.35;;;;;;;5.21;100.00;100904.25;5049943;28;20074;-76
2023/03/08 05:48:58;;;;;;;0.38;0.28;;;;;;;5.20;100.00;100903.38;5048883;28;20041;-77
2023/03/08 05:51:27;;;;;;;0.30;0.30;;;;;;;5.20;100.00;100905.94;5044840;28;20106;-78
2023/03/08 05:53:55;;;;;;;0.47;0.40;;;;;;;5.16;100.00;100896.31;5048974;28;20100;-78
2023/03/08 05:56:25;;;;;;;0.68;0.40;;;;;;;5.16;100.00;100895.44;5051545;28;20087;-76
2023/03/08 05:58:53;;;;;;;1.13;0.52;;;;;;;5.13;100.00;100896.16;5041763;28;20046;-74
2023/03/08 06:01:25;;;;;;;0.57;0.38;;;;;;;5.10;100.00;100892.53;5046157;28;20057;-78
2023/03/08 06:03:55;;;;;;;3.78;0.47;;;;;;;5.06;100.00;100888.91;5043623;28;20063;-75
2023/03/08 06:06:25;;;;;;;0.70;0.35;;;;;;;5.06;100.00;100896.59;5053632;28;20127;-77
2023/03/08 06:08:55;;;;;;;0.60;0.30;;;;;;;5.04;100.00;100893.09;5046750;28;20108;-76
2023/03/08 06:11:23;;;;;;;0.32;0.20;;;;;;;5.00;100.00;100888.59;5055240;28;20125;-76
2023/03/08 06:13:52;;;;;;;1.65;0.57;;;;;;;4.98;100.00;100895.31;5053840;28;20134;-76
2023/03/08 06:16:20;;;;;;;0.30;0.30;;;;;;;4.96;100.00;100891.78;5053911;28;20045;-75
2023/03/08 06:18:50;;;;;;;0.80;0.50;;;;;;;4.92;100.00;100885.59;5052469;28;20116;-76
2023/03/08 06:21:21;;;;;;;21.13;9.07;;;;;;;4.91;100.00;100882.97;5058857;28;20044;-76
2023/03/08 06:23:52;;;;;;;13.00;6.68;;;;;;;4.90;100.00;100881.19;5050410;28;20060;-75
2023/03/08 06:26:20;;;;;;;3.05;0.35;;;;;;;4.90;100.00;100883.75;5057340;28;20051;-76
2023/03/08 06:28:49;;;;;;;0.60;0.50;;;;;;;4.87;100.00;100876.78;5053520;27;20068;-76
2023/03/08 06:31:19;;;;;;;1.10;0.32;;;;;;;4.86;100.00;100880.16;5043949;28;20620;-75
2023/03/08 06:33:48;;;;;;;1.45;0.80;;;;;;;4.82;100.00;100873.97;5053872;28;20135;-75
2023/03/08 06:36:20;;;;;;;1.70;1.00;;;;;;;4.77;100.00;100867.72;5045704;28;20051;-74
2023/03/08 06:38:49;;;;;;;2.57;0.90;;;;;;;4.70;100.00;100863.06;5047859;28;20053;-73
2023/03/08 06:41:19;;;;;;;3.15;1.30;;;;;;;4.74;100.00;100880.38;5052184;28;20329;-73
2023/03/08 06:43:48;;;;;;;0.57;0.50;;;;;;;4.71;100.00;100869.94;5056311;28;20040;-74
2023/03/08 06:46:19;;;;;;;1.85;0.88;;;;;;;4.68;100.00;100872.34;5064226;28;20052;-73
2023/03/08 06:48:48;;;;;;;1.98;0.88;;;;;;;4.65;100.00;100872.19;5055627;28;20457;-73
2023/03/08 06:51:19;;;;;;;0.88;0.57;;;;;;;4.62;100.00;100877.13;5048879;28;20055;-73
2023/03/08 06:53:48;;;;;;;3.08;0.95;;;;;;;4.60;100.00;100877.06;5050793;28;20045;-74
2023/03/08 06:56:18;;;;;;;1.58;0.70;;;;;;;4.59;100.00;100879.53;5056710;28;20053;-74
2023/03/08 06:58:47;;;;;;;1.73;0.85;;;;;;;4.57;100.00;100871.75;5056493;28;20120;-74
2023/03/08 07:01:15;;;;;;;1.50;0.95;;;;;;;4.56;100.00;100875.13;5046449;28;20155;-73
2023/03/08 07:03:45;;;;;;;0.95;0.65;;;;;;;4.53;100.00;100876.59;5051570;28;20127;-72
2023/03/08 07:06:14;;;;;;;2.00;1.00;;;;;;;4.53;100.00;100868.91;5051398;28;20671;-73
2023/03/08 07:08:44;;;;;;;2.00;1.02;;;;;;;4.50;100.00;100873.88;5050844;28;20622;-74
2023/03/08 07:11:13;;;;;;;6.25;1.30;;;;;;;4.46;100.00;100874.50;5050128;28;20556;-73
2023/03/08 07:13:42;;;;;;;4.05;1.88;;;;;;;4.44;100.00;100876.09;5047500;28;20048;-73
2023/03/08 07:16:12;;;;;;;1.55;1.10;;;;;;;4.39;100.00;100871.59;5045686;28;20088;-73
2023/03/08 07:18:41;;;;;;;1.55;1.10;;;;;;;4.35;100.00;100864.56;5043270;28;20049;-73
2023/03/08 07:21:11;;;;;;;1.83;1.00;;;;;;;4.32;100.00;100872.06;5053937;28;20041;-73
2023/03/08 07:23:39;;;;;;;5.43;1.60;;;;;;;4.29;100.00;100865.88;5046165;28;20041;-72
2023/03/08 07:26:17;;;;;;;2.30;1.88;;;;;;;4.23;100.00;100873.22;5049628;28;20099;-73
2023/03/08 07:28:48;;;;;;;3.78;1.20;;;;;;;4.15;100.00;100880.47;5047180;28;20056;-72
2023/03/08 07:31:17;;;;;;;3.03;1.23;;;;;;;4.09;100.00;100885.22;5046302;28;20614;-72
2023/03/08 07:33:45;;;;;;;3.65;1.27;;;;;;;4.03;100.00;100890.88;5048416;28;20070;-72
2023/03/08 07:36:14;;;;;;;1.17;1.00;;;;;;;3.95;100.00;100893.00;5049175;28;20099;-73
2023/03/08 07:38:42;;;;;;;2.58;1.45;;;;;;;3.88;100.00;100883.19;5046567;28;20045;-72
2023/03/08 07:41:12;;;;;;;2.33;1.60;;;;;;;3.87;100.00;100877.97;5042711;28;20433;-72
2023/03/08 07:43:41;;;;;;;2.83;1.20;;;;;;;3.85;100.00;100877.91;5050710;28;20107;-73
2023/03/08 07:46:09;;;;;;;1.55;1.27;;;;;;;3.84;100.00;100886.38;5051193;28;20167;-73
2023/03/08 07:48:38;;;;;;;2.25;1.23;;;;;;;3.81;100.00;100888.75;5043827;28;20049;-73
2023/03/08 07:51:09;;;;;;;2.50;1.55;;;;;;;3.76;100.00;100883.38;5045602;28;20410;-73
2023/03/08 07:53:38;;;;;;;2.92;1.55;;;;;;;3.75;100.00;100888.38;5053074;28;20742;-73
2023/03/08 07:56:07;;;;;;;2.90;1.20;;;;;;;3.73;100.00;100882.28;5049925;28;20052;-73
2023/03/08 07:58:37;;;;;;;4.35;1.45;;;;;;;3.73;100.00;100895.09;5049625;28;20049;-73
2023/03/08 08:01:10;;;;;;;3.63;1.50;;;;;;;3.72;100.00;100883.97;5044347;28;20501;-73
2023/03/08 08:03:38;;;;;;;4.07;2.08;;;;;;;3.71;100.00;100887.34;5048517;28;20051;-73
2023/03/08 08:06:08;;;;;;;2.78;1.55;;;;;;;3.68;100.00;100876.91;5046828;28;20088;-74
2023/03/08 08:08:36;;;;;;;4.35;2.08;;;;;;;3.64;100.00;100874.97;5043571;28;20051;-73
2023/03/08 08:11:12;;;;;;;2.67;1.98;;;;;;;3.64;100.00;100874.06;5052486;28;20040;-73
2023/03/08 08:13:42;;;;;;;4.18;2.38;;;;;;;3.61;100.00;100873.91;5040360;28;20064;-74
2023/03/08 08:16:11;;;;;;;5.07;2.30;;;;;;;3.59;100.00;100867.81;5048737;28;20057;-74
2023/03/08 08:18:40;;;;;;;3.03;1.90;;;;;;;3.54;100.00;100847.94;5045968;28;20501;-74
2023/03/08 08:21:10;;;;;;;6.13;2.20;;;;;;;3.52;100.00;100843.53;5044314;28;20049;-73
2023/03/08 08:23:40;;;;;;;2.95;1.60;;;;;;;3.46;100.00;100841.50;5051142;28;20057;-74
2023/03/08 08:26:11;;;;;;;4.28;2.40;;;;;;;3.44;100.00;100837.09;5050624;28;20048;-74
2023/03/08 08:28:43;;;;;;;4.30;2.20;;;;;;;3.39;100.00;100824.03;5046439;27;20635;-73
2023/03/08 08:31:12;;;;;;;4.07;2.27;;;;;;;3.34;100.00;100821.22;5049624;28;20098;-74
2023/03/08 08:33:41;;;;;;;2.55;1.35;;;;;;;3.30;100.00;100820.94;5043449;28;20123;-74
2023/03/08 08:36:17;;;;;;;3.33;1.73;;;;;;;3.26;100.00;100822.41;5051490;28;20155;-74
2023/03/08 08:38:46;;;;;;;3.70;2.00;;;;;;;3.23;100.00;100813.66;5050018;28;20045;-74
2023/03/08 08:41:15;;;;;;;5.45;1.92;;;;;;;3.20;100.00;100816.03;5044171;28;20052;-74
2023/03/08 08:43:47;;;;;;;3.67;2.38;;;;;;;3.15;100.00;100816.66;5046037;28;20772;-74
2023/03/08 08:46:16;;;;;;;5.40;2.60;;;;;;;3.12;100.00;100816.47;5050087;28;20559;-73
2023/03/08 08:48:45;;;;;;;4.60;2.47;;;;;;;3.07;100.00;100812.75;5051601;28;20783;-74
2023/03/08 08:51:15;;;;;;;6.93;2.15;;;;;;;3.06;100.00;100826.31;5048800;28;20055;-74
2023/03/08 08:53:44;;;;;;;5.00;2.63;;;;;;;3.02;100.00;100819.25;5054029;28;20494;-72
2023/03/08 08:56:14;;;;;;;8.50;2.85;;;;;;;2.99;100.00;100824.19;5048816;28;20104;-73
2023/03/08 08:58:43;;;;;;;5.20;2.47;;;;;;;2.96;100.00;100831.69;5046778;28;20065;-73
2023/03/08 09:01:17;;;;;;;3.42;1.80;;;;;;;2.93;100.00;100823.78;5045332;28;20122;-73
2023/03/08 09:03:46;;;;;;;8.75;2.25;;;;;;;2.86;100.00;100817.47;5049593;28;20041;-75
2023/03/08 09:06:15;;;;;;;4.18;2.30;;;;;;;2.87;100.00;100828.56;5053056;28;20158;-73
2023/03/08 09:08:44;;;;;;;2.65;1.45;;;;;;;2.85;100.00;100822.47;5030248;28;20551;-73
2023/03/08 09:11:12;;;;;;;3.30;1.70;;;;;;;2.84;100.00;100825.78;5046837;28;20090;-73
2023/03/08 09:13:41;;;;;;;4.30;2.00;;;;;;;2.84;100.00;100828.34;5039698;28;20510;-72
2023/03/08 09:16:19;;;;;;;3.65;1.98;;;;;;;2.85;100.00;100825.91;5052576;28;20065;-72
2023/03/08 09:18:47;;;;;;;3.47;2.13;;;;;;;2.85;100.00;100819.91;5045175;28;20060;-72
2023/03/08 09:21:16;;;;;;;4.75;2.17;;;;;;;2.83;100.00;100818.94;5049777;28;20044;-75
2023/03/08 09:23:45;;;;;;;5.30;2.47;;;;;;;2.88;100.00;100825.19;5042336;28;20052;-73
2023/03/08 09:26:14;;;;;;;2.72;2.17;;;;;;;2.87;100.00;100826.88;5043686;28;20406;-73
2023/03/08 09:28:42;;;;;;;4.30;1.85;;;;;;;2.88;100.00;100827.75;5043021;27;20053;-73
2023/03/08 09:31:13;;;;;;;3.22;2.10;;;;;;;2.88;100.00;100832.88;5039485;28;20045;-72
2023/03/08 09:33:45;;;;;;;3.33;2.10;;;;;;;2.87;100.00;100832.00;5044700;28;20131;-72
2023/03/08 09:36:14;;;;;;;4.15;2.65;;;;;;;2.87;100.00;100829.44;5047871;28;20044;-73
2023/03/08 09:38:43;;;;;;;4.05;2.13;;;;;;;2.86;100.00;100827.69;5042721;28;20044;-73
2023/03/08 09:41:32;;;;;;;5.00;2.03;;;;;;;2.87;100.00;100829.44;5046906;28;20052;-73
2023/03/08 09:44:13;;;;;;;3.97;2.28;;;;;;;2.87;100.00;100833.66;5047261;28;20049;-72
2023/03/08 09:46:47;;;;;;;3.55;2.70;;;;;;;2.87;100.00;100828.56;5048926;28;20049;-72
2023/03/08 09:49:23;;;;;;;3.63;1.88;;;;;;;2.88;100.00;100825.19;5050076;28;20489;-72
2023/03/08 09:52:00;;;;;;;3.22;1.98;;;;;;;2.90;100.00;100828.72;5046445;28;20045;-74
2023/03/08 09:54:29;;;;;;;3.28;1.83;;;;;;;2.91;100.00;100830.50;5045002;28;20052;-72
2023/03/08 09:56:58;;;;;;;2.50;1.75;;;;;;;2.92;100.00;100827.16;5047839;28;20493;-73
2023/03/08 09:59:32;;;;;;;4.13;2.83;;;;;;;2.91;100.00;100823.72;5042143;28;20059;-73
2023/03/08 10:02:14;;;;;;;3.00;1.50;;;;;;;2.92;100.00;100822.03;5054170;28;20481;-72
2023/03/08 10:04:53;;;;;;;3.60;1.55;;;;;;;2.90;100.00;100814.28;5044485;28;20041;-73
2023/03/08 10:07:32;;;;;;;2.63;1.42;;;;;;;2.91;100.00;100804.97;5049389;28;20705;-72
2023/03/08 10:10:17;;;;;;;2.13;1.52;;;;;;;2.90;100.00;100804.06;5051901;28;20707;-72
2023/03/08 10:13:15;;;;;;;1.90;1.50;;;;;;;2.89;100.00;100806.53;5048587;28;20040;-72
2023/03/08 10:15:48;;;;;;;2.38;1.48;;;;;;;2.86;100.00;100801.22;5041366;28;20045;-73
2023/03/08 10:18:29;;;;;;;2.00;1.13;;;;;;;2.85;100.00;100799.47;5047226;28;20048;-73
2023/03/08 10:21:01;;;;;;;2.72;1.52;;;;;;;2.85;100.00;100802.91;5049177;28;20045;-74
2023/03/08 10:23:32;;;;;;;4.53;1.30;;;;;;;2.85;100.00;100799.47;5046161;28;20049;-73
2023/03/08 10:26:02;;;;;;;3.47;1.60;;;;;;;2.82;100.00;100795.06;5052935;28;20422;-74
2023/03/08 10:28:30;;;;;;;1.88;1.10;;;;;;;2.82;100.00;100786.47;5045772;27;20061;-73
2023/03/08 10:31:03;;;;;;;2.38;1.45;;;;;;;2.82;100.00;100784.84;5054814;28;20049;-74
2023/03/08 10:33:35;;;;;;;1.23;0.98;;;;;;;2.82;100.00;100786.47;5043652;28;20128;-73
2023/03/08 10:36:11;;;;;;;2.58;1.25;;;;;;;2.81;100.00;100774.50;5043842;28;20041;-73
2023/03/08 10:38:40;;;;;;;1.63;0.90;;;;;;;2.81;100.00;100774.50;5048472;28;20072;-73
2023/03/08 10:41:16;;;;;;;0.90;0.80;;;;;;;2.81;100.00;100774.50;5052022;28;20057;-73
2023/03/08 10:43:48;;;;;;;1.33;1.20;;;;;;;2.80;100.00;100767.66;5048299;28;20049;-73
2023/03/08 10:46:18;;;;;;;1.73;1.30;;;;;;;2.81;100.00;100771.94;5049012;28;20071;-73
2023/03/08 10:48:47;;;;;;;1.90;1.23;;;;;;;2.80;100.00;100765.09;5045078;28;20641;-73
2023/03/08 10:51:22;;;;;;;2.90;1.50;;;;;;;2.81;100.00;100766.84;5047898;28;20637;-73
2023/03/08 10:53:55;;;;;;;1.88;1.30;;;;;;;2.81;100.00;100774.50;5050050;28;20098;-73
2023/03/08 10:56:27;;;;;;;1.95;1.40;;;;;;;2.79;100.00;100774.41;5045796;28;20048;-73
2023/03/08 10:58:59;;;;;;;1.83;1.40;;;;;;;2.78;100.00;100774.31;5047417;28;20123;-73
2023/03/08 11:01:30;;;;;;;1.98;1.48;;;;;;;2.77;100.00;100780.22;5048461;28;20290;-73
2023/03/08 11:04:06;;;;;;;2.28;1.45;;;;;;;2.75;100.00;100774.13;5048504;28;20604;-74
2023/03/08 11:06:37;;;;;;;2.35;1.33;;;;;;;2.72;100.00;100768.03;5054046;28;20671;-72
2023/03/08 11:09:19;;;;;;;3.15;1.67;;;;;;;2.71;100.00;100776.50;5049885;28;20123;-73
2023/03/08 11:11:48;;;;;;;3.97;1.55;;;;;;;2.67;100.00;100769.44;5048202;28;20057;-72
2023/03/08 11:14:17;;;;;;;5.07;1.73;;;;;;;2.63;100.00;100776.81;5046089;28;20040;-73
2023/03/08 11:17:06;;;;;;;3.63;1.95;;;;;;;2.56;100.00;100770.44;5050512;28;20119;-73
2023/03/08 11:19:46;;;;;;;4.78;2.15;;;;;;;2.50;100.00;100767.53;5046206;28;20659;-73
2023/03/08 11:22:29;;;;;;;5.55;2.75;;;;;;;2.42;99.54;100777.25;5048804;28;20498;-72
2023/03/08 11:25:18;;;;;;;3.90;1.98;;;;;;;2.33;98.71;100765.59;5054805;28;20114;-73
2023/03/08 11:28:01;;;;;;;2.50;1.38;;;;;;;2.23;99.39;100765.00;5044662;27;20083;-72
2023/03/08 11:30:43;;;;;;;5.57;2.83;;;;;;;2.16;99.38;100762.88;5049614;28;20036;-72
2023/03/08 11:33:29;;;;;;;4.35;2.00;;;;;;;2.10;100.00;100772.66;5044577;28;20056;-73
2023/03/08 11:36:03;;;;;;;2.38;1.35;;;;;;;2.06;100.00;100761.41;5049025;28;20045;-71
2023/03/08 11:38:35;;;;;;;2.67;1.23;;;;;;;2.05;100.00;100766.41;5050270;28;20056;-73
2023/03/08 11:41:13;;;;;;;4.55;1.33;;;;;;;2.00;100.00;100760.13;5048664;28;20640;-72